createdAt,value
2022-12-09T00:01:12.678Z,45.53
2022-12-09T00:03:42.828Z,44.05
2022-12-09T00:06:13.237Z,41.28
2022-12-09T00:08:41.577Z,38.42
2022-12-09T00:11:09.747Z,36.35
2022-12-09T00:13:38.470Z,37.33
2022-12-09T00:16:07.375Z,36.40
2022-12-09T00:18:35.940Z,37.22
2022-12-09T00:21:14.568Z,38.38
2022-12-09T00:23:42.892Z,34.92
2022-12-09T00:26:11.367Z,34.90
2022-12-09T00:28:39.505Z,35.58
2022-12-09T00:31:09.816Z,36.40
2022-12-09T00:33:37.850Z,35.38
2022-12-09T00:36:07.411Z,33.75
2022-12-09T00:38:36.828Z,33.63
2022-12-09T00:41:05.684Z,32.53
2022-12-09T00:43:34.205Z,31.42
2022-12-09T00:46:02.977Z,33.08
2022-12-09T00:48:34.296Z,35.08
2022-12-09T00:51:02.789Z,34.10
2022-12-09T00:53:31.022Z,34.58
2022-12-09T00:56:00.441Z,34.00
2022-12-09T00:58:28.625Z,35.47
2022-12-09T01:00:56.981Z,38.30
2022-12-09T01:03:25.392Z,36.28
2022-12-09T01:05:53.979Z,34.83
2022-12-09T01:08:22.364Z,35.50
2022-12-09T01:10:50.483Z,37.50
2022-12-09T01:13:19.766Z,32.58
2022-12-09T01:15:47.867Z,37.63
2022-12-09T01:18:16.373Z,36.47
2022-12-09T01:20:44.388Z,35.08
2022-12-09T01:23:12.647Z,34.95
2022-12-09T01:25:40.709Z,34.00
2022-12-09T01:28:09.040Z,35.40
2022-12-09T01:30:38.628Z,33.33
2022-12-09T01:33:06.926Z,34.70
2022-12-09T01:35:35.454Z,35.13
2022-12-09T01:38:03.479Z,35.10
2022-12-09T01:40:31.626Z,35.53
2022-12-09T01:42:59.580Z,35.28
2022-12-09T01:45:43.038Z,33.75
2022-12-09T01:48:14.186Z,34.40
2022-12-09T01:50:46.859Z,34.63
2022-12-09T01:53:16.148Z,33.67
2022-12-09T01:55:45.132Z,32.78
2022-12-09T01:58:14.137Z,32.33
2022-12-09T02:00:44.130Z,33.25
2022-12-09T02:03:12.722Z,33.08
2022-12-09T02:05:41.207Z,35.10
2022-12-09T02:08:13.351Z,35.33
2022-12-09T02:10:48.823Z,35.85
2022-12-09T02:13:23.638Z,34.17
2022-12-09T02:15:55.876Z,35.97
2022-12-09T02:18:27.949Z,32.13
2022-12-09T02:20:59.323Z,33.55
2022-12-09T02:23:31.355Z,34.28
2022-12-09T02:26:08.141Z,36.17
2022-12-09T02:28:57.564Z,36.25
2022-12-09T02:31:40.816Z,36.53
2022-12-09T02:34:16.000Z,35.00
2022-12-09T02:36:50.592Z,36.35
2022-12-09T02:39:19.810Z,33.65
2022-12-09T02:41:48.998Z,36.60
2022-12-09T02:44:20.026Z,33.85
2022-12-09T02:46:48.248Z,35.20
2022-12-09T02:49:17.742Z,35.10
2022-12-09T02:51:46.285Z,36.55
2022-12-09T02:54:15.953Z,33.20
2022-12-09T02:56:47.355Z,34.67
2022-12-09T02:59:15.432Z,35.80
2022-12-09T03:01:50.018Z,36.20
2022-12-09T03:04:21.895Z,37.53
2022-12-09T03:06:53.079Z,35.58
2022-12-09T03:09:23.411Z,35.77
2022-12-09T03:11:52.039Z,34.50
2022-12-09T03:14:23.142Z,36.85
2022-12-09T03:16:54.594Z,36.55
2022-12-09T03:19:27.262Z,34.33
2022-12-09T03:21:58.502Z,32.67
2022-12-09T03:24:29.567Z,33.30
2022-12-09T03:26:58.685Z,36.15
2022-12-09T03:29:28.050Z,36.58
2022-12-09T03:31:57.083Z,35.17
2022-12-09T03:34:31.330Z,33.92
2022-12-09T03:37:00.645Z,34.85
2022-12-09T03:39:33.499Z,36.58
2022-12-09T03:42:05.043Z,35.17
2022-12-09T03:44:37.046Z,33.67
2022-12-09T03:47:06.106Z,33.13
2022-12-09T03:49:35.784Z,34.17
2022-12-09T03:52:07.276Z,35.22
2022-12-09T03:54:40.127Z,34.55
2022-12-09T03:57:17.013Z,37.03
2022-12-09T03:59:52.021Z,34.58
2022-12-09T04:02:20.219Z,35.50
2022-12-09T04:04:50.379Z,34.33
2022-12-09T04:07:18.964Z,32.67
2022-12-09T04:09:47.107Z,34.28
2022-12-09T04:12:15.229Z,34.05
2022-12-09T04:14:43.278Z,34.92
2022-12-09T04:17:12.734Z,37.67
2022-12-09T04:19:40.959Z,35.40
2022-12-09T04:22:10.589Z,35.20
2022-12-09T04:24:38.917Z,34.88
2022-12-09T04:27:07.022Z,36.38
2022-12-09T04:29:35.071Z,36.78
2022-12-09T04:32:03.096Z,35.10
2022-12-09T04:34:31.452Z,37.00
2022-12-09T04:36:59.501Z,34.05
2022-12-09T04:39:29.212Z,35.08
2022-12-09T04:41:57.491Z,36.40
2022-12-09T04:44:26.032Z,35.97
2022-12-09T04:46:54.256Z,38.80
2022-12-09T04:49:22.307Z,36.83
2022-12-09T04:51:50.342Z,35.25
2022-12-09T04:54:18.547Z,37.63
2022-12-09T04:56:49.535Z,36.75
2022-12-09T04:59:17.575Z,37.08
2022-12-09T05:01:45.826Z,35.33
2022-12-09T05:04:14.209Z,35.03
2022-12-09T05:06:42.894Z,35.85
2022-12-09T05:09:13.412Z,35.70
2022-12-09T05:11:42.145Z,36.47
2022-12-09T05:14:11.907Z,36.25
2022-12-09T05:16:40.040Z,36.55
2022-12-09T05:19:08.500Z,35.67
2022-12-09T05:21:36.946Z,36.42
2022-12-09T05:24:06.051Z,35.78
2022-12-09T05:26:34.498Z,35.97
2022-12-09T05:29:02.558Z,37.78
2022-12-09T05:31:31.955Z,38.00
2022-12-09T05:34:00.631Z,37.30
2022-12-09T05:36:29.138Z,38.53
2022-12-09T05:38:57.386Z,38.10
2022-12-09T05:41:25.982Z,37.60
2022-12-09T05:43:54.818Z,36.05
2022-12-09T05:46:23.485Z,35.25
2022-12-09T05:48:53.213Z,34.17
2022-12-09T05:51:24.653Z,36.03
2022-12-09T05:53:53.950Z,37.67
2022-12-09T05:56:23.457Z,39.13
2022-12-09T05:58:55.982Z,39.28
2022-12-09T06:01:25.034Z,37.83
2022-12-09T06:03:55.483Z,40.20
2022-12-09T06:06:26.783Z,40.22
2022-12-09T06:08:56.323Z,39.97
2022-12-09T06:11:24.864Z,41.05
2022-12-09T06:13:53.158Z,42.63
2022-12-09T06:16:23.335Z,40.80
2022-12-09T06:18:51.882Z,43.42
2022-12-09T06:21:22.231Z,40.47
2022-12-09T06:23:51.571Z,40.92
2022-12-09T06:26:21.530Z,43.13
2022-12-09T06:28:50.240Z,40.50
2022-12-09T06:31:18.905Z,43.53
2022-12-09T06:33:56.339Z,36.08
2022-12-09T06:36:28.095Z,39.65
2022-12-09T06:38:57.919Z,39.60
2022-12-09T06:41:26.950Z,50.60
2022-12-09T06:43:57.774Z,49.03
2022-12-09T06:46:27.074Z,48.35
2022-12-09T06:48:56.622Z,57.60
2022-12-09T06:51:26.881Z,52.10
2022-12-09T06:53:55.364Z,56.40
2022-12-09T06:56:25.415Z,49.05
2022-12-09T06:58:54.178Z,54.13
2022-12-09T07:01:24.237Z,49.17
2022-12-09T07:03:54.666Z,46.40
2022-12-09T07:06:28.762Z,54.13
2022-12-09T07:08:58.293Z,49.53
2022-12-09T07:11:26.606Z,45.83
2022-12-09T07:13:54.854Z,55.35
2022-12-09T07:16:23.813Z,49.10
2022-12-09T07:18:53.118Z,36.75
2022-12-09T07:21:22.904Z,39.20
2022-12-09T07:23:52.620Z,40.60
2022-12-09T07:26:21.462Z,42.90
2022-12-09T07:28:50.488Z,40.67
2022-12-09T07:31:20.762Z,43.67
2022-12-09T07:33:50.039Z,45.42
2022-12-09T07:36:21.206Z,39.10
2022-12-09T07:38:50.340Z,51.53
2022-12-09T07:41:20.324Z,53.03
2022-12-09T07:43:48.973Z,50.97
2022-12-09T07:46:19.453Z,45.13
2022-12-09T07:48:49.182Z,53.67
2022-12-09T07:51:17.933Z,53.63
2022-12-09T07:53:46.922Z,47.65
2022-12-09T07:56:16.953Z,40.70
2022-12-09T07:58:48.644Z,62.13
2022-12-09T08:01:19.061Z,40.67
2022-12-09T08:03:48.461Z,44.42
2022-12-09T08:06:19.216Z,51.05
2022-12-09T08:08:48.459Z,44.10
2022-12-09T08:11:18.828Z,49.70
2022-12-09T08:13:49.053Z,42.40
2022-12-09T08:16:19.832Z,41.88
2022-12-09T08:18:49.604Z,55.75
2022-12-09T08:21:19.840Z,38.65
2022-12-09T08:23:48.727Z,43.55
2022-12-09T08:26:19.211Z,42.25
2022-12-09T08:28:49.484Z,38.65
2022-12-09T08:31:21.127Z,42.28
2022-12-09T08:36:20.563Z,49.42
2022-12-09T08:38:49.459Z,40.40
2022-12-09T08:41:19.433Z,46.17
2022-12-09T08:43:49.257Z,55.30
2022-12-09T08:46:17.895Z,37.38
2022-12-09T08:48:47.396Z,36.35
2022-12-09T08:51:16.443Z,34.22
2022-12-09T08:53:45.652Z,38.97
2022-12-09T08:56:19.553Z,38.13
2022-12-09T08:58:49.458Z,33.47
2022-12-09T09:01:19.640Z,32.78
2022-12-09T09:03:49.299Z,38.67
2022-12-09T09:06:22.221Z,35.42
2022-12-09T09:08:50.981Z,31.60
2022-12-09T09:11:20.781Z,31.67
2022-12-09T09:13:52.415Z,35.45
2022-12-09T09:16:22.857Z,32.60
2022-12-09T09:18:51.795Z,30.98
2022-12-09T09:21:28.473Z,30.17
2022-12-09T09:23:57.128Z,31.83
2022-12-09T09:26:28.177Z,29.92
2022-12-09T09:28:58.614Z,28.35
2022-12-09T09:31:26.804Z,30.27
2022-12-09T09:33:56.367Z,28.10
2022-12-09T09:36:25.887Z,27.23
2022-12-09T09:38:55.307Z,28.13
2022-12-09T09:41:29.332Z,27.20
2022-12-09T09:43:59.060Z,28.00
2022-12-09T09:46:36.047Z,28.85
2022-12-09T09:49:05.779Z,28.90
2022-12-09T09:51:35.090Z,26.30
2022-12-09T09:54:08.466Z,29.92
2022-12-09T09:56:41.146Z,27.38
2022-12-09T10:01:47.856Z,27.23
2022-12-09T10:04:21.869Z,25.80
2022-12-09T10:06:53.399Z,24.20
2022-12-09T10:09:24.858Z,25.52
2022-12-09T10:11:59.992Z,25.33
2022-12-09T10:14:42.876Z,24.20
2022-12-09T10:17:19.417Z,24.67
2022-12-09T10:19:49.717Z,24.42
2022-12-09T10:22:21.227Z,26.20
2022-12-09T10:24:51.762Z,25.47
2022-12-09T10:27:29.133Z,23.88
2022-12-09T10:30:00.194Z,26.88
2022-12-09T10:32:33.558Z,31.27
2022-12-09T10:35:03.367Z,33.05
2022-12-09T10:37:35.227Z,25.85
2022-12-09T10:40:24.884Z,29.75
2022-12-09T10:43:13.050Z,33.60
2022-12-09T10:46:16.639Z,23.83
2022-12-09T10:48:38.780Z,30.02
2022-12-09T10:51:14.172Z,25.33
2022-12-09T10:53:48.564Z,27.65
2022-12-09T10:56:22.104Z,26.30
2022-12-09T10:58:50.257Z,24.17
2022-12-09T11:01:20.224Z,25.08
2022-12-09T11:03:50.901Z,22.90
2022-12-09T11:06:26.091Z,25.70
2022-12-09T11:08:56.878Z,22.20
2022-12-09T11:11:46.374Z,24.35
2022-12-09T11:14:23.082Z,24.17
2022-12-09T11:16:54.495Z,25.88
2022-12-09T11:19:33.462Z,35.30
2022-12-09T11:22:38.291Z,34.95
2022-12-09T11:25:25.076Z,27.38
2022-12-09T11:27:55.399Z,30.92
2022-12-09T11:30:27.125Z,27.67
2022-12-09T11:35:34.121Z,27.05
2022-12-09T11:38:05.464Z,26.92
2022-12-09T11:40:34.590Z,28.42
2022-12-09T11:43:03.480Z,25.00
2022-12-09T11:45:35.219Z,29.42
2022-12-09T11:48:27.512Z,29.10
2022-12-09T11:50:56.294Z,28.25
2022-12-09T11:53:29.585Z,28.02
2022-12-09T11:56:01.171Z,25.42
2022-12-09T11:58:32.057Z,25.80
2022-12-09T12:01:04.457Z,25.38
2022-12-09T12:03:38.879Z,34.75
2022-12-09T12:06:10.647Z,27.20
2022-12-09T12:08:45.200Z,25.08
2022-12-09T12:11:15.683Z,26.10
2022-12-09T12:13:46.349Z,27.35
2022-12-09T12:16:19.323Z,26.58
2022-12-09T12:18:52.420Z,26.45
2022-12-09T12:21:25.284Z,29.60
2022-12-09T12:24:32.617Z,27.40
2022-12-09T12:27:10.060Z,26.55
2022-12-09T12:29:47.539Z,29.17
2022-12-09T12:32:26.737Z,31.17
2022-12-09T12:35:15.072Z,29.55
2022-12-09T12:37:54.138Z,28.42
2022-12-09T12:40:29.088Z,29.40
2022-12-09T12:43:21.227Z,34.53
2022-12-09T12:46:11.273Z,28.20
2022-12-09T12:48:49.225Z,27.73
2022-12-09T12:51:26.281Z,28.80
2022-12-09T12:53:58.671Z,27.05
2022-12-09T12:56:30.716Z,29.70
2022-12-09T12:59:05.435Z,25.02
2022-12-09T13:01:35.925Z,27.98
2022-12-09T13:04:14.454Z,29.33
2022-12-09T13:06:48.259Z,29.73
2022-12-09T13:09:20.079Z,33.08
2022-12-09T13:11:58.678Z,28.60
2022-12-09T13:14:32.023Z,28.83
2022-12-09T13:17:02.187Z,31.13
2022-12-09T13:19:35.592Z,28.60
2022-12-09T13:22:05.595Z,27.65
2022-12-09T13:24:42.215Z,29.70
2022-12-09T13:27:15.495Z,28.02
2022-12-09T13:29:46.576Z,26.30
2022-12-09T13:32:27.188Z,27.10
2022-12-09T13:35:00.504Z,25.92
2022-12-09T13:37:57.699Z,27.45
2022-12-09T13:40:31.779Z,26.45
2022-12-09T13:43:13.351Z,27.50
2022-12-09T13:45:50.930Z,27.00
2022-12-09T13:48:52.088Z,26.95
2022-12-09T13:51:21.003Z,24.00
2022-12-09T13:53:54.322Z,25.65
2022-12-09T13:56:28.275Z,27.02
2022-12-09T13:59:17.823Z,24.77
2022-12-09T14:01:49.278Z,25.25
2022-12-09T14:04:22.451Z,22.38
2022-12-09T14:06:56.012Z,22.98
2022-12-09T14:09:39.728Z,23.98
2022-12-09T14:12:10.107Z,23.50
2022-12-09T14:14:56.488Z,26.70
2022-12-09T14:17:58.989Z,23.63
2022-12-09T14:20:32.484Z,23.63
2022-12-09T14:23:24.623Z,25.88
2022-12-09T14:26:02.796Z,23.75
2022-12-09T14:28:55.309Z,23.55
2022-12-09T14:31:52.252Z,24.15
2022-12-09T14:34:29.549Z,26.77
2022-12-09T14:37:06.623Z,26.70
2022-12-09T14:39:42.252Z,23.98
2022-12-09T14:42:19.697Z,29.08
2022-12-09T14:44:52.239Z,27.92
2022-12-09T14:47:24.048Z,29.52
2022-12-09T14:49:54.067Z,29.25
2022-12-09T14:52:24.862Z,29.75
2022-12-09T14:54:54.143Z,30.48
2022-12-09T14:57:26.193Z,29.05
2022-12-09T15:02:26.393Z,25.33
2022-12-09T15:04:55.573Z,25.92
2022-12-09T15:07:25.947Z,25.33
2022-12-09T15:09:56.272Z,24.60
2022-12-09T15:12:31.288Z,27.35
2022-12-09T15:15:01.359Z,27.48
2022-12-09T15:17:32.440Z,28.27
2022-12-09T15:20:01.399Z,27.77
2022-12-09T15:22:31.665Z,26.90
2022-12-09T15:25:02.258Z,29.55
2022-12-09T15:27:31.825Z,28.45
2022-12-09T15:29:59.782Z,28.35
2022-12-09T15:32:29.490Z,27.85
2022-12-09T15:35:16.590Z,27.38
2022-12-09T15:37:45.801Z,26.98
2022-12-09T15:40:16.414Z,27.50
2022-12-09T15:42:48.835Z,28.42
2022-12-09T15:45:18.223Z,30.95
2022-12-09T15:47:49.009Z,30.23
2022-12-09T15:50:21.462Z,31.95
2022-12-09T15:52:51.366Z,33.10
2022-12-09T15:55:21.550Z,28.77
2022-12-09T15:57:53.729Z,31.08
2022-12-09T16:00:21.980Z,29.42
2022-12-09T16:02:50.479Z,29.98
2022-12-09T16:05:23.758Z,29.77
2022-12-09T16:07:56.888Z,31.00
2022-12-09T16:10:27.013Z,29.67
2022-12-09T16:13:11.185Z,29.13
2022-12-09T16:15:50.051Z,27.23
2022-12-09T16:18:22.542Z,28.80
2022-12-09T16:20:59.045Z,29.42
2022-12-09T16:23:27.839Z,27.45
2022-12-09T16:26:06.320Z,26.65
2022-12-09T16:28:36.239Z,27.27
2022-12-09T16:31:05.770Z,29.60
2022-12-09T16:33:39.319Z,31.10
2022-12-09T16:36:10.104Z,28.25
2022-12-09T16:38:38.363Z,29.52
2022-12-09T16:41:09.491Z,30.17
2022-12-09T16:43:53.935Z,30.33
2022-12-09T16:46:36.231Z,28.90
2022-12-09T16:49:05.280Z,31.50
2022-12-09T16:51:33.588Z,31.10
2022-12-09T16:54:02.131Z,30.67
2022-12-09T16:56:31.835Z,31.10
2022-12-09T16:59:01.258Z,30.42
2022-12-09T17:01:33.849Z,27.60
2022-12-09T17:04:05.055Z,31.30
2022-12-09T17:06:33.196Z,30.63
2022-12-09T17:09:01.201Z,33.53
2022-12-09T17:11:29.210Z,32.17
2022-12-09T17:13:57.295Z,32.90
2022-12-09T17:16:26.965Z,33.30
2022-12-09T17:18:55.092Z,30.27
2022-12-09T17:21:23.399Z,31.73
2022-12-09T17:23:51.342Z,30.13
2022-12-09T17:26:20.974Z,29.77
2022-12-09T17:28:49.866Z,30.55
2022-12-09T17:31:19.522Z,29.23
2022-12-09T17:33:49.007Z,30.80
2022-12-09T17:36:19.799Z,31.70
2022-12-09T17:38:47.914Z,31.02
2022-12-09T17:41:19.349Z,30.58
2022-12-09T17:43:47.562Z,33.47
2022-12-09T17:46:16.032Z,29.90
2022-12-09T17:48:44.055Z,29.17
2022-12-09T17:51:17.754Z,29.95
2022-12-09T17:53:46.574Z,30.38
2022-12-09T17:56:16.769Z,32.00
2022-12-09T17:58:45.034Z,30.35
2022-12-09T18:01:15.131Z,33.35
2022-12-09T18:04:04.418Z,29.77
2022-12-09T18:06:34.386Z,32.05
2022-12-09T18:09:03.920Z,29.92
2022-12-09T18:11:32.013Z,32.40
2022-12-09T18:14:01.420Z,32.45
2022-12-09T18:16:30.652Z,32.92
2022-12-09T18:19:02.491Z,33.28
2022-12-09T18:21:31.848Z,33.22
2022-12-09T18:23:59.858Z,31.05
2022-12-09T18:26:31.366Z,30.73
2022-12-09T18:29:02.391Z,30.38
2022-12-09T18:31:30.763Z,30.90
2022-12-09T18:33:58.773Z,33.55
2022-12-09T18:36:29.128Z,33.85
2022-12-09T18:38:59.395Z,33.70
2022-12-09T18:41:29.579Z,34.13
2022-12-09T18:43:59.864Z,34.03
2022-12-09T18:46:29.644Z,33.03
2022-12-09T18:48:58.501Z,35.55
2022-12-09T18:51:26.991Z,33.25
2022-12-09T18:53:55.459Z,35.45
2022-12-09T18:56:24.878Z,33.70
2022-12-09T18:59:09.196Z,34.53
2022-12-09T19:01:40.383Z,34.33
2022-12-09T19:04:13.326Z,33.78
2022-12-09T19:06:43.499Z,34.58
2022-12-09T19:09:13.844Z,35.95
2022-12-09T19:11:44.143Z,37.28
2022-12-09T19:14:12.293Z,35.72
2022-12-09T19:16:40.795Z,36.95
2022-12-09T19:19:10.586Z,35.85
2022-12-09T19:21:39.311Z,35.28
2022-12-09T19:24:12.947Z,34.78
2022-12-09T19:26:42.660Z,36.80
2022-12-09T19:29:13.174Z,38.10
2022-12-09T19:31:43.130Z,36.25
2022-12-09T19:34:14.074Z,33.65
2022-12-09T19:36:42.513Z,33.20
2022-12-09T19:39:11.301Z,35.92
2022-12-09T19:41:40.780Z,34.05
2022-12-09T19:44:09.082Z,38.50
2022-12-09T19:46:38.817Z,34.55
2022-12-09T19:49:07.012Z,37.17
2022-12-09T19:51:35.021Z,38.28
2022-12-09T19:54:03.190Z,36.55
2022-12-09T19:56:31.230Z,33.20
2022-12-09T19:59:00.254Z,35.35
2022-12-09T20:01:31.772Z,36.03
2022-12-09T20:04:18.993Z,37.92
2022-12-09T20:06:51.594Z,34.78
2022-12-09T20:09:24.407Z,33.53
2022-12-09T20:11:52.944Z,33.97
2022-12-09T20:14:21.461Z,37.90
2022-12-09T20:16:49.580Z,36.67
2022-12-09T20:19:19.733Z,35.97
2022-12-09T20:21:47.763Z,34.45
2022-12-09T20:24:15.844Z,37.92
2022-12-09T20:26:44.302Z,32.55
2022-12-09T20:29:12.974Z,33.85
2022-12-09T20:31:42.332Z,35.97
2022-12-09T20:34:16.047Z,33.95
2022-12-09T20:36:46.708Z,36.45
2022-12-09T20:39:17.423Z,36.72
2022-12-09T20:41:45.998Z,33.80
2022-12-09T20:44:15.269Z,33.90
2022-12-09T20:46:46.685Z,31.10
2022-12-09T20:49:14.670Z,33.30
2022-12-09T20:51:45.100Z,33.95
2022-12-09T20:54:15.780Z,33.17
2022-12-09T20:56:43.881Z,32.42
2022-12-09T20:59:13.636Z,34.08
2022-12-09T21:01:43.549Z,31.55
2022-12-09T21:04:11.796Z,33.75
2022-12-09T21:06:41.673Z,31.52
2022-12-09T21:09:11.458Z,32.35
2022-12-09T21:11:40.905Z,31.70
2022-12-09T21:14:10.910Z,30.35
2022-12-09T21:16:40.607Z,32.00
2022-12-09T21:19:11.861Z,32.50
2022-12-09T21:21:41.450Z,34.33
2022-12-09T21:24:10.803Z,29.33
2022-12-09T21:26:39.422Z,30.58
2022-12-09T21:29:09.397Z,31.90
2022-12-09T21:31:38.729Z,31.50
2022-12-09T21:34:08.112Z,28.15
2022-12-09T21:36:37.410Z,31.95
2022-12-09T21:39:06.375Z,31.98
2022-12-09T21:41:36.372Z,31.52
2022-12-09T21:44:05.289Z,31.05
2022-12-09T21:46:36.377Z,30.55
2022-12-09T21:49:06.451Z,30.33
2022-12-09T21:51:36.258Z,31.05
2022-12-09T21:54:04.886Z,28.98
2022-12-09T21:56:35.763Z,29.55
2022-12-09T21:59:05.876Z,30.60
2022-12-09T22:01:37.098Z,29.60
2022-12-09T22:04:06.747Z,30.92
2022-12-09T22:06:35.542Z,30.20
2022-12-09T22:09:04.708Z,29.20
2022-12-09T22:11:35.240Z,29.95
2022-12-09T22:14:04.102Z,32.22
2022-12-09T22:16:35.668Z,30.83
2022-12-09T22:19:06.098Z,29.27
2022-12-09T22:21:34.705Z,27.80
2022-12-09T22:24:05.037Z,28.73
2022-12-09T22:26:33.681Z,29.23
2022-12-09T22:29:03.440Z,28.85
2022-12-09T22:31:32.958Z,26.90
2022-12-09T22:34:04.622Z,27.83
2022-12-09T22:36:33.014Z,29.38
2022-12-09T22:39:01.355Z,28.95
2022-12-09T22:41:30.428Z,27.30
2022-12-09T22:43:58.784Z,28.63
2022-12-09T22:46:28.540Z,28.63
2022-12-09T22:48:56.931Z,27.05
2022-12-09T22:51:27.981Z,28.02
2022-12-09T22:53:57.258Z,26.05
2022-12-09T22:56:26.258Z,27.27
2022-12-09T22:58:54.738Z,28.70
2022-12-09T23:01:24.325Z,28.17
2022-12-09T23:03:52.461Z,25.70
2022-12-09T23:06:20.532Z,26.23
2022-12-09T23:08:50.125Z,26.50
2022-12-09T23:11:20.221Z,28.08
2022-12-09T23:13:49.311Z,28.23
2022-12-09T23:16:19.703Z,28.65
2022-12-09T23:18:48.311Z,28.85
2022-12-09T23:21:17.746Z,27.48
2022-12-09T23:23:46.193Z,28.05
2022-12-09T23:26:17.881Z,27.70
2022-12-09T23:28:47.895Z,28.55
2022-12-09T23:31:17.510Z,24.10
2022-12-09T23:33:47.030Z,26.75
2022-12-09T23:36:16.863Z,25.85
2022-12-09T23:38:45.657Z,26.55
2022-12-09T23:41:17.269Z,24.58
2022-12-09T23:43:46.854Z,27.08
2022-12-09T23:46:17.055Z,27.98
2022-12-09T23:48:45.961Z,25.00
2022-12-09T23:51:16.053Z,24.45
2022-12-09T23:53:44.964Z,24.23
2022-12-09T23:56:16.091Z,23.60
2022-12-09T23:58:44.299Z,25.93
